Time;durP1;ratioP1;P1;durP2;ratioP2;P2;SDS_P1;SDS_P2;PMS_P1;PMS_P2;Temp;Humidity;BMP_temperature;BMP_pressure;BME280_temperature;BME280_humidity;BME280_pressure;Samples;Min_cycle;Max_cycle;Signal;HPM_P1;HPM_P2
2022/07/11 00:01:20;;;;;;;9.00;7.15;;;;;;;19.69;74.23;99487.31;4942361;29;20035;-79
2022/07/11 00:03:46;;;;;;;7.88;6.32;;;;;;;19.73;73.85;99490.66;4922794;29;20055;-77
2022/07/11 00:06:12;;;;;;;8.82;7.72;;;;;;;19.77;73.72;99493.97;4936710;29;20574;-77
2022/07/11 00:08:38;;;;;;;10.32;7.45;;;;;;;19.78;73.54;99488.59;4939809;29;20043;-75
2022/07/11 00:11:04;;;;;;;12.15;8.23;;;;;;;19.78;73.50;99485.97;4951540;28;20043;-76
2022/07/11 00:13:30;;;;;;;9.90;8.23;;;;;;;19.76;73.46;99484.34;4938674;29;20465;-77
2022/07/11 00:15:56;;;;;;;9.02;7.90;;;;;;;19.74;73.20;99479.16;4937733;29;20057;-76
2022/07/11 00:18:23;;;;;;;13.60;7.82;;;;;;;19.81;73.49;99477.06;4953673;28;20477;-76
2022/07/11 00:20:49;;;;;;;11.70;9.10;;;;;;;19.85;73.57;99489.16;4952103;28;20129;-75
2022/07/11 00:23:16;;;;;;;13.73;9.10;;;;;;;19.81;73.32;99491.09;4934627;29;20039;-77
2022/07/11 00:25:42;;;;;;;14.13;9.00;;;;;;;19.82;72.96;99505.16;4952553;28;20043;-76
2022/07/11 00:28:08;;;;;;;13.57;9.10;;;;;;;19.85;73.21;99499.72;4937291;29;20407;-75
2022/07/11 00:30:34;;;;;;;12.05;8.60;;;;;;;19.78;73.11;99496.53;4952963;28;20040;-76
2022/07/11 00:33:00;;;;;;;10.77;8.85;;;;;;;19.81;72.80;99499.00;4952609;28;20039;-76
2022/07/11 00:35:26;;;;;;;14.32;9.05;;;;;;;19.91;73.06;99503.84;4952584;28;20055;-76
2022/07/11 00:37:52;;;;;;;11.15;7.88;;;;;;;19.94;72.75;99511.63;4939240;29;20192;-75
2022/07/11 00:40:19;;;;;;;9.82;8.20;;;;;;;19.97;72.92;99508.81;4936771;29;20460;-76
2022/07/11 00:42:45;;;;;;;12.05;8.55;;;;;;;19.93;72.92;99500.19;4935964;29;20163;-75
2022/07/11 00:45:11;;;;;;;14.48;9.00;;;;;;;19.97;72.76;99507.03;4936055;28;20043;-77
2022/07/11 00:47:38;;;;;;;12.43;8.27;;;;;;;20.01;72.70;99505.06;4940442;29;20084;-77
2022/07/11 00:50:05;;;;;;;9.63;8.73;;;;;;;19.94;72.42;99496.63;4940220;28;20051;-75
2022/07/11 00:52:32;;;;;;;12.38;8.95;;;;;;;19.95;72.59;99495.69;4943095;29;20042;-77
2022/07/11 00:54:59;;;;;;;15.70;10.07;;;;;;;19.99;72.29;99505.16;4959449;28;20044;-77
2022/07/11 00:57:26;;;;;;;13.63;8.93;;;;;;;19.95;72.21;99498.31;4940861;29;20058;-75
2022/07/11 00:59:53;;;;;;;12.93;9.13;;;;;;;19.96;72.53;99493.91;4956175;28;20039;-76
2022/07/11 01:02:20;;;;;;;12.98;8.85;;;;;;;19.95;72.50;99495.69;4941917;29;20046;-76
2022/07/11 01:04:46;;;;;;;12.93;9.35;;;;;;;19.96;72.47;99497.41;4942899;29;20039;-76
2022/07/11 01:07:13;;;;;;;13.43;9.50;;;;;;;19.96;72.21;99497.41;4939402;29;20444;-77
2022/07/11 01:09:40;;;;;;;10.25;8.50;;;;;;;19.95;72.41;99500.13;4942704;29;20082;-76
2022/07/11 01:12:06;;;;;;;12.73;9.00;;;;;;;19.95;72.45;99503.59;4956155;28;20066;-77
2022/07/11 01:14:32;;;;;;;12.05;8.57;;;;;;;19.96;72.53;99496.56;4953781;28;20130;-77
2022/07/11 01:16:59;;;;;;;12.55;9.20;;;;;;;19.93;72.42;99496.72;4955546;28;20416;-77
2022/07/11 01:19:26;;;;;;;12.73;9.52;;;;;;;19.90;72.59;99492.44;4938985;29;20043;-76
2022/07/11 01:21:58;;;;;;;14.55;9.75;;;;;;;19.84;72.58;99483.03;4942018;29;20702;-77
2022/07/11 01:24:25;;;;;;;17.02;9.90;;;;;;;19.89;72.67;99484.59;4940375;28;20043;-76
2022/07/11 01:26:52;;;;;;;12.32;8.70;;;;;;;19.89;72.83;99474.88;4955993;28;20050;-76
2022/07/11 01:29:18;;;;;;;10.70;9.32;;;;;;;19.83;72.70;99481.31;4952116;29;20040;-76
2022/07/11 01:31:44;;;;;;;12.27;9.70;;;;;;;19.79;72.51;99471.00;4962142;29;20051;-78
2022/07/11 01:34:11;;;;;;;11.88;9.48;;;;;;;19.79;72.87;99466.56;4947538;29;20130;-76
2022/07/11 01:36:38;;;;;;;11.30;9.25;;;;;;;19.84;73.12;99467.19;4955633;28;20471;-76
2022/07/11 01:39:05;;;;;;;12.32;9.38;;;;;;;19.86;72.96;99456.56;4956604;28;20117;-76
2022/07/11 01:41:31;;;;;;;13.43;8.93;;;;;;;19.90;72.80;99447.53;4953823;28;20098;-76
2022/07/11 01:43:57;;;;;;;9.30;8.40;;;;;;;19.95;73.16;99447.31;4940953;29;20044;-76
2022/07/11 01:46:24;;;;;;;9.48;7.85;;;;;;;19.99;72.99;99449.72;4939996;29;20059;-77
2022/07/11 01:48:50;;;;;;;14.40;8.50;;;;;;;20.00;72.70;99439.97;4954913;28;20491;-76
2022/07/11 01:51:18;;;;;;;8.38;7.55;;;;;;;20.02;72.59;99448.69;4940208;29;20047;-76
2022/07/11 01:53:44;;;;;;;8.93;7.30;;;;;;;20.10;72.62;99449.13;4939615;29;20423;-76
2022/07/11 01:56:10;;;;;;;9.80;6.95;;;;;;;20.10;72.61;99435.06;4945488;28;20050;-76
2022/07/11 01:58:36;;;;;;;10.48;6.50;;;;;;;20.20;72.71;99440.69;4938902;28;20050;-76
2022/07/11 02:01:02;;;;;;;8.57;7.38;;;;;;;20.22;72.10;99442.31;4949624;28;20420;-76
2022/07/11 02:03:29;;;;;;;7.40;6.70;;;;;;;20.29;72.03;99442.84;4923670;29;20039;-76
2022/07/11 02:05:54;;;;;;;8.05;6.72;;;;;;;20.40;72.11;99447.53;4943322;29;20606;-79
2022/07/11 02:08:21;;;;;;;10.30;6.75;;;;;;;20.42;71.47;99440.38;4940375;28;20129;-78
2022/07/11 02:10:49;;;;;;;10.90;8.30;;;;;;;20.49;71.26;99438.25;4946838;28;20098;-76
2022/07/11 02:13:17;;;;;;;14.00;10.80;;;;;;;20.46;71.29;99426.06;4941534;29;20435;-79
2022/07/11 02:15:46;;;;;;;12.52;11.13;;;;;;;20.55;70.26;99433.44;4940364;29;20059;-78
2022/07/11 02:18:13;;;;;;;15.52;11.88;;;;;;;20.61;70.38;99434.91;4943414;29;20040;-76
2022/07/11 02:20:41;;;;;;;11.75;10.75;;;;;;;20.62;70.64;99426.91;4947257;29;20515;-76
2022/07/11 02:23:08;;;;;;;13.60;11.75;;;;;;;20.69;69.71;99431.84;4940524;29;20039;-76
2022/07/11 02:25:38;;;;;;;13.27;11.20;;;;;;;20.70;69.68;99442.31;4944413;29;20050;-79
2022/07/11 02:28:08;;;;;;;12.35;11.15;;;;;;;20.74;69.60;99435.91;4941135;28;20170;-77
2022/07/11 02:30:38;;;;;;;13.30;12.10;;;;;;;20.75;69.63;99432.34;4955878;28;20047;-77
2022/07/11 02:33:07;;;;;;;;;;;;;;;20.79;69.25;99442.78;4938093;29;20039;-77
2022/07/11 02:35:33;;;;;;;12.27;8.32;;;;;;;20.70;68.55;99441.47;4954351;28;20021;-76
2022/07/11 02:38:00;;;;;;;9.77;8.75;;;;;;;20.70;68.55;99442.31;4940309;29;20055;-76
2022/07/11 02:40:26;;;;;;;12.18;10.93;;;;;;;20.61;68.48;99440.22;4951394;28;20446;-78
2022/07/11 02:42:53;;;;;;;11.25;10.00;;;;;;;20.68;68.62;99440.72;4938431;29;20043;-76
2022/07/11 02:45:19;;;;;;;11.38;10.18;;;;;;;20.82;68.64;99447.88;4942297;29;20036;-76
2022/07/11 02:47:45;;;;;;;11.48;10.48;;;;;;;20.92;68.04;99446.41;4954061;28;20057;-77
2022/07/11 02:50:13;;;;;;;12.13;10.73;;;;;;;20.88;68.11;99444.88;4954180;28;20467;-76
2022/07/11 02:52:41;;;;;;;12.23;10.85;;;;;;;20.92;68.22;99443.75;4954431;28;20044;-76
2022/07/11 02:55:10;;;;;;;11.80;10.68;;;;;;;20.81;67.81;99436.44;4946939;28;20094;-76
2022/07/11 02:57:41;;;;;;;11.98;9.68;;;;;;;20.80;67.74;99457.69;4970017;28;20050;-75
2022/07/11 03:00:12;;;;;;;11.48;9.50;;;;;;;20.69;67.94;99450.34;4950597;29;20519;-76
2022/07/11 03:02:38;;;;;;;10.45;9.43;;;;;;;20.68;67.93;99453.94;4939396;28;20119;-77
2022/07/11 03:05:05;;;;;;;11.43;10.00;;;;;;;20.55;67.33;99453.75;4955314;28;20378;-77
2022/07/11 03:07:32;;;;;;;10.38;9.27;;;;;;;20.51;68.19;99449.56;4940178;29;20051;-77
2022/07/11 03:09:58;;;;;;;9.23;8.38;;;;;;;20.50;68.23;99447.88;4939402;28;20047;-78
2022/07/11 03:12:24;;;;;;;9.82;8.45;;;;;;;20.56;68.17;99445.72;4939190;29;20500;-77
2022/07/11 03:14:51;;;;;;;9.15;8.25;;;;;;;20.64;68.39;99447.94;4955735;28;20464;-76
2022/07/11 03:17:18;;;;;;;9.43;8.38;;;;;;;20.66;68.80;99445.22;4941748;29;20059;-78
2022/07/11 03:19:44;;;;;;;9.82;7.35;;;;;;;20.71;68.82;99440.53;4947987;28;20139;-81
2022/07/11 03:22:11;;;;;;;8.57;7.78;;;;;;;20.76;68.41;99434.06;4939060;29;20045;-77
2022/07/11 03:24:37;;;;;;;8.70;7.80;;;;;;;20.75;68.69;99426.19;4937447;29;20054;-82
2022/07/11 03:27:04;;;;;;;8.80;7.68;;;;;;;20.81;68.68;99444.38;4940245;29;20054;-79
2022/07/11 03:29:31;;;;;;;9.35;7.57;;;;;;;20.77;68.57;99433.13;4953021;28;20047;-77
2022/07/11 03:32:01;;;;;;;8.48;7.30;;;;;;;20.97;68.55;99440.84;4940383;28;20046;-77
2022/07/11 03:34:28;;;;;;;8.20;7.17;;;;;;;21.05;68.19;99425.41;4939353;29;20492;-77
2022/07/11 03:36:54;;;;;;;10.52;6.85;;;;;;;21.27;68.53;99430.28;4946778;28;20047;-76
2022/07/11 03:39:23;;;;;;;9.13;8.10;;;;;;;21.59;68.19;99438.06;4951029;28;20042;-78
2022/07/11 03:41:49;;;;;;;9.30;7.60;;;;;;;21.74;67.76;99415.16;4962886;28;20050;-76
2022/07/11 03:44:15;;;;;;;11.10;7.38;;;;;;;22.09;67.09;99422.69;4952855;29;20041;-77
2022/07/11 03:46:42;;;;;;;9.43;7.20;;;;;;;22.21;66.39;99429.00;4931110;29;20047;-79
2022/07/11 03:49:08;;;;;;;8.88;7.30;;;;;;;22.39;65.79;99439.41;4967837;28;20043;-78
2022/07/11 03:51:35;;;;;;;8.02;6.60;;;;;;;22.58;64.69;99422.34;4959924;28;20036;-75
2022/07/11 03:54:01;;;;;;;8.35;6.90;;;;;;;22.66;63.95;99434.16;4943841;29;20047;-76
2022/07/11 03:56:27;;;;;;;8.23;6.30;;;;;;;22.71;64.39;99433.84;4934919;29;20043;-77
2022/07/11 03:58:54;;;;;;;6.72;5.85;;;;;;;22.72;63.75;99416.97;4936141;29;20047;-78
2022/07/11 04:01:20;;;;;;;8.82;6.65;;;;;;;22.63;62.90;99442.28;4944399;28;20062;-77
2022/07/11 04:03:47;;;;;;;7.72;6.55;;;;;;;22.43;63.10;99427.66;4954445;29;20039;-76
2022/07/11 04:06:14;;;;;;;9.77;6.25;;;;;;;22.44;62.94;99428.53;4944297;28;20508;-79
2022/07/11 04:08:43;;;;;;;7.40;6.45;;;;;;;22.41;62.56;99442.78;4949963;29;20118;-78
2022/07/11 04:11:10;;;;;;;9.63;6.50;;;;;;;22.30;62.78;99432.03;4958895;28;20039;-77
2022/07/11 04:13:36;;;;;;;10.88;6.93;;;;;;;22.46;62.75;99443.38;4952876;29;20051;-78
2022/07/11 04:16:03;;;;;;;8.55;5.97;;;;;;;22.75;63.02;99440.66;4945825;28;20042;-78
2022/07/11 04:18:29;;;;;;;7.25;6.28;;;;;;;22.94;62.24;99436.78;4933572;29;20058;-78
2022/07/11 04:20:56;;;;;;;11.20;7.53;;;;;;;23.28;62.42;99442.53;4960076;28;20050;-77
2022/07/11 04:23:22;;;;;;;7.07;5.85;;;;;;;23.29;62.29;99431.78;4965062;28;20078;-77
2022/07/11 04:25:48;;;;;;;7.57;5.97;;;;;;;23.36;61.10;99426.91;4971499;29;20043;-76
2022/07/11 04:28:14;;;;;;;6.72;5.95;;;;;;;23.34;61.09;99438.59;4958017;29;20043;-77
2022/07/11 04:30:40;;;;;;;6.80;5.72;;;;;;;23.35;60.85;99437.66;4944066;29;20447;-77
2022/07/11 04:33:06;;;;;;;7.20;6.50;;;;;;;23.40;60.45;99433.72;4951963;29;20507;-77
2022/07/11 04:35:32;;;;;;;6.88;6.20;;;;;;;23.43;60.27;99422.03;4951965;28;20039;-76
2022/07/11 04:37:59;;;;;;;6.70;6.05;;;;;;;23.62;60.73;99450.81;4940316;29;20049;-77
2022/07/11 04:40:29;;;;;;;6.75;6.15;;;;;;;23.50;59.80;99435.75;4948804;29;20051;-78
2022/07/11 04:42:55;;;;;;;10.57;6.32;;;;;;;23.62;59.33;99443.69;4955830;28;20035;-78
2022/07/11 04:45:21;;;;;;;9.35;6.10;;;;;;;23.59;59.40;99419.16;4971436;28;20150;-76
2022/07/11 04:47:47;;;;;;;6.50;5.90;;;;;;;23.76;59.75;99428.63;4953149;29;20135;-78
2022/07/11 04:50:13;;;;;;;7.25;6.60;;;;;;;23.97;59.07;99418.31;4940429;29;20039;-77
2022/07/11 04:52:42;;;;;;;8.35;6.13;;;;;;;24.11;58.73;99430.63;4956465;29;20043;-78
2022/07/11 04:55:08;;;;;;;8.57;6.13;;;;;;;24.28;57.89;99415.25;4918169;29;20050;-78
2022/07/11 04:57:35;;;;;;;6.75;6.05;;;;;;;24.37;58.30;99422.56;4937888;29;20047;-78
2022/07/11 05:00:02;;;;;;;6.88;6.15;;;;;;;24.45;58.05;99398.09;4954755;28;20047;-78
2022/07/11 05:02:30;;;;;;;6.82;6.13;;;;;;;24.57;57.84;99397.19;4970521;28;20039;-77
2022/07/11 05:04:59;;;;;;;6.97;6.38;;;;;;;24.78;57.59;99399.25;4957079;29;20050;-76
2022/07/11 05:07:26;;;;;;;10.32;6.32;;;;;;;24.99;57.33;99402.09;4938209;29;20153;-77
2022/07/11 05:09:55;;;;;;;7.25;6.50;;;;;;;24.92;56.12;99392.91;4944302;29;20046;-77
2022/07/11 05:12:21;;;;;;;6.75;5.97;;;;;;;24.95;56.61;99390.84;4954582;28;20039;-78
2022/07/11 05:14:48;;;;;;;9.43;6.78;;;;;;;25.06;55.88;99386.50;4971754;28;20066;-77
2022/07/11 05:17:14;;;;;;;9.23;6.07;;;;;;;25.03;55.32;99389.44;4941566;28;20051;-76
2022/07/11 05:19:41;;;;;;;8.18;6.60;;;;;;;25.02;56.15;99391.22;4966567;28;20134;-76
2022/07/11 05:22:07;;;;;;;7.43;6.45;;;;;;;25.06;55.47;99391.84;4951815;29;20042;-77
2022/07/11 05:24:34;;;;;;;9.40;6.50;;;;;;;25.16;55.59;99378.69;4955088;28;20039;-78
2022/07/11 05:27:00;;;;;;;7.57;6.15;;;;;;;25.24;54.93;99382.47;4957178;28;20067;-77
2022/07/11 05:29:26;;;;;;;6.28;5.63;;;;;;;25.42;55.09;99382.00;4956889;29;20047;-77
2022/07/11 05:31:52;;;;;;;6.30;5.70;;;;;;;25.66;55.28;99365.09;4950121;28;20031;-77
2022/07/11 05:34:19;;;;;;;8.85;5.80;;;;;;;25.88;53.77;99369.56;4954570;29;20146;-78
2022/07/11 05:36:47;;;;;;;6.53;5.68;;;;;;;25.99;54.39;99363.38;4959389;28;20111;-78
2022/07/11 05:39:15;;;;;;;9.60;5.70;;;;;;;26.10;54.13;99367.84;4946165;29;20043;-77
2022/07/11 05:41:41;;;;;;;6.68;5.70;;;;;;;26.22;53.51;99371.34;4942558;29;20885;-78
2022/07/11 05:44:07;;;;;;;5.97;5.38;;;;;;;26.33;53.83;99358.00;4942312;29;20979;-76
2022/07/11 05:46:37;;;;;;;6.90;6.22;;;;;;;26.44;52.70;99367.78;4940260;28;20355;-80
2022/07/11 05:49:04;;;;;;;7.55;5.70;;;;;;;26.57;52.91;99370.28;4939619;28;20051;-78
2022/07/11 05:51:30;;;;;;;7.00;5.57;;;;;;;26.81;52.34;99369.25;4953428;28;20051;-78
2022/07/11 05:53:56;;;;;;;9.18;5.78;;;;;;;27.45;52.69;99364.72;4953728;28;20047;-78
2022/07/11 05:56:22;;;;;;;6.97;5.45;;;;;;;28.74;50.60;99353.38;4939968;29;20085;-78
2022/07/11 05:58:49;;;;;;;7.13;5.38;;;;;;;30.54;48.83;99344.34;4940450;29;20047;-77
2022/07/11 06:01:15;;;;;;;6.90;4.40;;;;;;;32.12;47.43;99345.16;4954734;28;20122;-77
2022/07/11 06:03:41;;;;;;;7.97;5.13;;;;;;;33.49;42.87;99343.81;4956546;28;20094;-76
2022/07/11 06:06:07;;;;;;;6.50;4.55;;;;;;;33.78;39.14;99339.66;4938788;28;20594;-78
2022/07/11 06:08:42;;;;;;;7.65;5.05;;;;;;;34.27;38.71;99332.34;4941730;29;20797;-78
2022/07/11 06:11:11;;;;;;;5.07;4.25;;;;;;;35.82;36.83;99330.19;4938529;29;20044;-76
2022/07/11 06:13:41;;;;;;;5.10;4.70;;;;;;;36.49;34.85;99336.38;4942307;29;20050;-77
2022/07/11 06:16:09;;;;;;;5.78;4.63;;;;;;;36.69;33.09;99324.88;4938123;28;20142;-79
2022/07/11 06:18:37;;;;;;;4.82;4.32;;;;;;;36.88;32.60;99340.44;4939219;29;20046;-76
2022/07/11 06:21:05;;;;;;;12.45;4.85;;;;;;;36.87;32.69;99327.06;4953193;28;20043;-82
2022/07/11 06:23:34;;;;;;;9.80;4.60;;;;;;;37.61;31.25;99330.31;4951762;28;20526;-77
2022/07/11 06:26:01;;;;;;;6.00;4.00;;;;;;;37.08;31.12;99331.63;4938912;29;20043;-78
2022/07/11 06:28:27;;;;;;;4.57;4.05;;;;;;;37.68;31.42;99331.16;4934457;29;20054;-76
2022/07/11 06:30:53;;;;;;;8.10;4.30;;;;;;;37.51;30.03;99325.25;4937753;28;20043;-76
2022/07/11 06:33:20;;;;;;;6.47;4.32;;;;;;;37.81;29.77;99331.22;4952528;28;20050;-75
2022/07/11 06:35:47;;;;;;;4.53;3.72;;;;;;;38.17;30.50;99331.13;4938448;29;20043;-76
2022/07/11 06:38:15;;;;;;;5.50;3.72;;;;;;;38.55;29.98;99316.97;4942303;29;20741;-77
2022/07/11 06:40:45;;;;;;;4.30;3.90;;;;;;;39.08;27.52;99313.38;4972168;28;20115;-76
2022/07/11 06:43:12;;;;;;;4.63;3.83;;;;;;;39.66;27.94;99325.38;4953738;29;20100;-78
2022/07/11 06:45:38;;;;;;;4.60;3.75;;;;;;;40.41;27.33;99304.03;4938030;29;20043;-76
2022/07/11 06:48:06;;;;;;;3.90;3.50;;;;;;;40.45;26.26;99313.44;4952545;28;20185;-77
2022/07/11 06:50:32;;;;;;;6.00;3.38;;;;;;;39.32;26.51;99311.06;4951060;28;20051;-77
2022/07/11 06:52:59;;;;;;;5.28;4.15;;;;;;;38.39;27.17;99310.91;4949557;28;20051;-77
2022/07/11 06:55:25;;;;;;;4.80;4.30;;;;;;;37.65;28.59;99318.84;4950696;28;20166;-77
2022/07/11 06:57:51;;;;;;;8.90;4.10;;;;;;;37.32;29.00;99316.75;4930241;29;20093;-78
2022/07/11 07:00:18;;;;;;;6.90;4.68;;;;;;;37.42;28.95;99316.38;4943333;29;20599;-77
2022/07/11 07:02:45;;;;;;;4.00;3.70;;;;;;;36.87;29.65;99316.22;4942931;29;20046;-78
2022/07/11 07:05:11;;;;;;;6.38;4.30;;;;;;;36.68;29.45;99317.78;4953399;28;20047;-77
2022/07/11 07:07:37;;;;;;;5.70;4.07;;;;;;;36.77;30.21;99313.88;4938177;29;20043;-80
2022/07/11 07:10:05;;;;;;;4.18;3.72;;;;;;;37.22;30.03;99305.44;4952895;28;20078;-76
2022/07/11 07:12:31;;;;;;;7.25;4.10;;;;;;;37.03;29.61;99301.56;4951396;28;20056;-75
2022/07/11 07:15:00;;;;;;;6.90;4.10;;;;;;;36.52;29.38;99303.47;4939669;29;20043;-77
2022/07/11 07:17:26;;;;;;;7.43;4.07;;;;;;;36.35;29.91;99305.59;4943344;28;20093;-77
2022/07/11 07:19:52;;;;;;;6.78;3.88;;;;;;;37.31;30.39;99306.94;4947613;29;20491;-79
2022/07/11 07:22:19;;;;;;;6.00;4.00;;;;;;;37.83;29.43;99306.56;4956790;28;20073;-77
2022/07/11 07:24:45;;;;;;;3.83;3.60;;;;;;;38.95;28.76;99306.09;4955169;28;20138;-77
2022/07/11 07:27:12;;;;;;;4.97;4.18;;;;;;;39.62;27.35;99302.38;4930605;29;20094;-77
2022/07/11 07:29:39;;;;;;;7.85;3.55;;;;;;;41.12;27.04;99292.97;4925298;29;20578;-79
2022/07/11 07:32:05;;;;;;;4.13;3.50;;;;;;;40.85;25.57;99304.09;4938824;28;20119;-79
2022/07/11 07:34:32;;;;;;;4.85;3.90;;;;;;;39.95;25.88;99308.72;4938486;29;20362;-77
2022/07/11 07:36:59;;;;;;;4.80;4.05;;;;;;;39.35;25.94;99310.63;4952206;28;20039;-76
2022/07/11 07:39:25;;;;;;;6.40;4.13;;;;;;;38.87;26.51;99295.47;4938365;29;20573;-77
2022/07/11 07:41:51;;;;;;;5.65;4.00;;;;;;;38.15;26.86;99297.91;4949148;28;20040;-80
2022/07/11 07:44:18;;;;;;;10.05;4.22;;;;;;;38.62;25.92;99290.66;4939152;29;20106;-78
2022/07/11 07:46:44;;;;;;;4.55;4.00;;;;;;;39.45;25.79;99302.88;4938124;29;20047;-77
2022/07/11 07:49:10;;;;;;;5.28;3.90;;;;;;;40.02;24.76;99287.75;4936397;29;20051;-76
2022/07/11 07:51:37;;;;;;;6.35;4.28;;;;;;;40.30;23.96;99287.34;4937740;29;20044;-75
2022/07/11 07:54:03;;;;;;;7.60;3.65;;;;;;;40.51;24.88;99277.94;4952197;28;20047;-77
2022/07/11 07:56:29;;;;;;;10.95;4.07;;;;;;;40.45;23.68;99292.47;4951040;28;20629;-76
2022/07/11 07:58:56;;;;;;;5.28;4.00;;;;;;;40.22;24.86;99282.16;4934358;29;20055;-77
2022/07/11 08:01:34;;;;;;;5.93;4.30;;;;;;;40.53;23.73;99285.91;4934556;29;20125;-77
2022/07/11 08:04:07;;;;;;;7.38;4.18;;;;;;;40.51;24.28;99288.03;4937457;29;20451;-76
2022/07/11 08:06:35;;;;;;;4.85;3.90;;;;;;;41.29;22.94;99268.59;4941672;29;20073;-77
2022/07/11 08:09:02;;;;;;;6.47;4.30;;;;;;;41.50;23.30;99273.59;4938650;29;20042;-78
2022/07/11 08:11:30;;;;;;;10.38;4.10;;;;;;;41.84;22.82;99267.69;4938076;29;20045;-78
2022/07/11 08:13:56;;;;;;;8.02;4.30;;;;;;;42.53;23.00;99275.47;4937777;29;20532;-79
2022/07/11 08:16:22;;;;;;;5.00;3.72;;;;;;;42.23;22.05;99279.13;4941120;28;20055;-79
2022/07/11 08:18:49;;;;;;;5.63;4.03;;;;;;;40.68;22.58;99277.44;4943947;28;20048;-80
2022/07/11 08:21:15;;;;;;;5.50;3.83;;;;;;;40.85;23.40;99276.84;4967747;28;20531;-79
2022/07/11 08:23:41;;;;;;;5.50;4.18;;;;;;;41.57;22.89;99275.44;4939039;29;20035;-78
2022/07/11 08:26:51;;;;;;;4.18;3.75;;;;;;;40.58;22.33;99277.06;4964699;28;20047;-78
2022/07/11 08:30:08;;;;;;;7.13;4.50;;;;;;;38.67;24.02;99274.56;4954122;28;20066;-78
2022/07/11 08:32:38;;;;;;;4.65;4.25;;;;;;;38.33;25.21;99276.41;4971429;28;20042;-80
2022/07/11 08:35:04;;;;;;;6.18;4.00;;;;;;;38.17;25.39;99258.66;4936581;29;20054;-78
2022/07/11 08:37:30;;;;;;;5.93;4.13;;;;;;;38.54;26.12;99266.41;4954778;29;20043;-77
2022/07/11 08:39:57;;;;;;;4.50;3.83;;;;;;;39.17;25.71;99262.34;4973459;28;20030;-79
2022/07/11 08:42:27;;;;;;;5.53;4.32;;;;;;;38.16;25.50;99270.56;4942031;28;20114;-81
2022/07/11 08:44:56;;;;;;;6.95;5.10;;;;;;;37.27;26.86;99253.31;4943457;29;20487;-85
2022/07/11 08:47:24;;;;;;;4.63;4.07;;;;;;;37.32;27.22;99242.72;4960166;28;20059;-79
2022/07/11 08:49:52;;;;;;;4.55;4.10;;;;;;;37.60;26.19;99258.91;4940111;29;20150;-80
2022/07/11 08:52:19;;;;;;;5.45;4.38;;;;;;;37.10;26.61;99256.38;4953522;28;20180;-79
2022/07/11 08:54:46;;;;;;;6.85;4.35;;;;;;;37.13;27.90;99272.25;4937554;29;20199;-80
2022/07/11 08:57:13;;;;;;;4.70;4.30;;;;;;;37.68;27.94;99244.31;4953514;28;20185;-80
2022/07/11 08:59:42;;;;;;;7.07;4.03;;;;;;;38.28;25.98;99259.91;4940077;29;20042;-81
2022/07/11 09:02:10;;;;;;;6.53;4.50;;;;;;;38.47;26.13;99236.53;4950772;28;20048;-81
2022/07/11 09:04:36;;;;;;;4.90;4.50;;;;;;;38.72;25.41;99246.75;4938691;29;20040;-81
2022/07/11 09:07:02;;;;;;;6.20;4.55;;;;;;;39.39;25.44;99248.50;4939019;29;20047;-80
2022/07/11 09:09:29;;;;;;;4.70;4.35;;;;;;;39.92;24.14;99241.94;4956455;28;20127;-80
2022/07/11 09:11:57;;;;;;;7.13;4.05;;;;;;;40.55;24.41;99240.22;4940939;28;20055;-80
2022/07/11 09:14:31;;;;;;;4.28;3.85;;;;;;;41.27;23.66;99238.03;4954769;28;20058;-81
2022/07/11 09:17:05;;;;;;;4.75;4.18;;;;;;;40.89;22.53;99240.72;4948438;28;20083;-79
2022/07/11 09:19:33;;;;;;;5.70;3.80;;;;;;;41.44;22.22;99238.19;4940695;29;20207;-81
2022/07/11 09:25:21;;;;;;;4.88;3.70;;;;;;;41.49;22.00;99205.59;4939654;28;20043;-80
2022/07/11 09:27:50;;;;;;;4.22;3.92;;;;;;;41.27;20.98;99229.84;4938564;29;20183;-81
2022/07/11 09:30:31;;;;;;;11.90;3.63;;;;;;;40.79;21.03;99233.06;4940997;29;20039;-81
2022/07/11 09:33:01;;;;;;;5.80;3.65;;;;;;;40.86;21.71;99234.88;4951964;28;20043;-81
2022/07/11 09:35:36;;;;;;;6.20;3.65;;;;;;;40.64;22.06;99227.13;4939286;29;20086;-81
2022/07/11 09:38:07;;;;;;;4.40;3.80;;;;;;;40.62;21.63;99193.81;4952919;28;20098;-80
2022/07/11 09:40:35;;;;;;;6.22;3.65;;;;;;;41.29;21.76;99234.00;4955231;28;20094;-81
2022/07/11 09:43:02;;;;;;;4.95;3.80;;;;;;;41.43;21.39;99190.16;4940171;29;20040;-84
2022/07/11 09:45:32;;;;;;;9.02;3.47;;;;;;;41.91;21.28;99191.16;4956443;28;20039;-83
2022/07/11 09:48:04;;;;;;;5.88;3.33;;;;;;;42.29;20.58;99187.19;4942949;29;20051;-83
2022/07/11 09:50:31;;;;;;;5.75;3.50;;;;;;;42.06;20.98;99194.28;4951454;29;20075;-82
2022/07/11 09:53:04;;;;;;;6.57;3.80;;;;;;;42.56;20.42;99195.75;4960499;28;20071;-82
2022/07/11 09:55:32;;;;;;;7.22;3.65;;;;;;;42.80;19.93;99203.94;4942456;29;20113;-81
2022/07/11 09:57:59;;;;;;;7.82;3.45;;;;;;;42.27;20.06;99189.31;4938076;29;20099;-84
2022/07/11 10:00:25;;;;;;;5.00;3.97;;;;;;;42.17;20.06;99195.38;4939357;29;20138;-82
2022/07/11 10:02:52;;;;;;;4.70;3.58;;;;;;;42.14;20.28;99185.75;4940382;29;20035;-83
2022/07/11 10:05:19;;;;;;;5.38;3.72;;;;;;;42.35;19.93;99212.72;4941739;29;20043;-82
2022/07/11 10:07:45;;;;;;;5.88;4.05;;;;;;;42.06;19.66;99194.28;4966412;28;20051;-83
2022/07/11 10:10:11;;;;;;;7.28;3.97;;;;;;;41.42;20.46;99208.44;4944177;28;20051;-81
2022/07/11 10:12:37;;;;;;;7.75;3.58;;;;;;;40.70;20.50;99228.13;4955027;28;20054;-83
2022/07/11 10:15:10;;;;;;;6.45;3.92;;;;;;;40.53;21.03;99189.69;4952983;29;20039;-82
2022/07/11 10:17:43;;;;;;;9.35;3.80;;;;;;;40.95;21.05;99228.91;4963584;28;20071;-81
2022/07/11 10:20:12;;;;;;;4.03;3.67;;;;;;;40.56;21.13;99219.22;4959949;29;20075;-82
2022/07/11 10:22:46;;;;;;;5.03;3.93;;;;;;;41.07;21.04;99200.84;4959158;29;20042;-82
2022/07/11 10:25:27;;;;;;;8.73;3.92;;;;;;;41.32;20.55;99195.34;4955202;29;20039;-83
2022/07/11 10:28:21;;;;;;;5.15;4.13;;;;;;;41.40;21.52;99197.72;4946002;28;20043;-80
2022/07/11 10:30:54;;;;;;;6.30;3.72;;;;;;;40.82;21.36;99196.34;4952623;29;20044;-85
2022/07/11 10:33:20;;;;;;;6.63;4.15;;;;;;;39.96;21.57;99213.19;4941862;28;20393;-83
2022/07/11 10:35:50;;;;;;;6.47;3.90;;;;;;;38.19;22.25;99223.97;4957959;28;20435;-83
2022/07/11 10:38:18;;;;;;;5.75;4.13;;;;;;;36.85;24.08;99185.56;4926843;29;20051;-85
2022/07/11 10:40:48;;;;;;;7.60;4.65;;;;;;;36.38;25.77;99201.44;4954533;28;20050;-85
2022/07/11 10:43:20;;;;;;;4.95;4.25;;;;;;;35.72;25.84;99215.00;4941679;29;20613;-84
2022/07/11 10:46:02;;;;;;;7.05;4.15;;;;;;;35.18;26.66;99209.97;4955041;28;20107;-85
2022/07/11 10:48:31;;;;;;;5.32;4.60;;;;;;;34.59;27.17;99200.81;4939337;29;20035;-83
2022/07/11 10:51:18;;;;;;;8.45;4.55;;;;;;;34.28;27.68;99207.16;4939274;29;20026;-84
2022/07/11 10:53:52;;;;;;;6.35;4.40;;;;;;;33.65;28.31;99171.19;4962505;29;20064;-85
2022/07/11 11:02:07;;;;;;;;;;;;;;;;;;;;;
2022/07/11 11:17:56;;;;;;;7.40;3.92;;;;;;;33.15;29.69;99197.53;5704804;23;20066;-79
2022/07/11 11:20:32;;;;;;;5.32;3.80;;;;;;;33.03;29.36;99215.94;4937101;28;20049;-78
2022/07/11 11:23:32;;;;;;;9.32;3.75;;;;;;;33.00;29.31;99193.91;4971397;28;20030;-78
2022/07/11 11:26:19;;;;;;;7.63;4.78;;;;;;;32.97;29.49;99173.56;4925761;28;20089;-80
2022/07/11 11:28:59;;;;;;;6.40;4.05;;;;;;;32.91;29.97;99152.69;4964856;28;20037;-76
2022/07/11 11:31:27;;;;;;;7.90;4.50;;;;;;;33.14;29.87;99187.78;4973120;28;20049;-78
2022/07/11 11:34:15;;;;;;;6.45;3.78;;;;;;;32.99;29.42;99184.16;4992702;28;20465;-80
2022/07/11 11:42:40;;;;;;;8.88;4.65;;;;;;;32.43;29.51;99096.13;4899602;29;20060;-80
2022/07/11 11:45:52;;;;;;;6.28;4.63;;;;;;;32.96;29.60;99177.25;4894128;29;20066;-80
2022/07/11 11:48:37;;;;;;;14.88;5.07;;;;;;;33.04;29.99;99158.34;4961938;28;20101;-79
2022/07/11 11:51:08;;;;;;;10.82;4.60;;;;;;;33.17;29.83;99181.22;4974075;28;20076;-78
2022/07/11 11:53:36;;;;;;;13.73;4.80;;;;;;;33.23;30.09;99185.06;4992619;28;20046;-76
2022/07/11 11:56:50;;;;;;;;;;;;;;;;;;;;;
2022/07/11 11:59:43;;;;;;;7.10;3.88;;;;;;;32.73;30.21;99097.19;4973627;28;20161;-79
2022/07/11 12:02:10;;;;;;;8.05;3.92;;;;;;;33.12;29.87;99197.06;4977108;28;20062;-82
2022/07/11 12:04:41;;;;;;;7.35;3.97;;;;;;;32.94;29.63;99189.19;4980412;28;20157;-79
2022/07/11 12:07:07;;;;;;;4.97;3.63;;;;;;;32.82;29.65;99207.56;4977226;28;20038;-81
2022/07/11 12:09:55;;;;;;;6.22;3.40;;;;;;;32.66;29.42;99173.47;4975763;28;20046;-78